Terminal Aerodrome Forecast
Issued by NWS Charleston, WV

Home | Current Version | Previous Version | Text Only | Print | Product List | Glossary On
Versions: 1 2 3 4 5 6 7 8 9 10 11 12 13 14 15 16 17 18 19 20 21 22 23 24 25 26 27 28 29 30 31 32
000
FTUS41 KRLX 022300
TAFCRW
TAF
KCRW 022329Z 0300/0324 21004KT P6SM VCTS SCT030CB BKN060
      TEMPO 0300/0302 2SM +TSRA BR BKN025CB
     FM030200 00000KT P6SM BKN090
     FM030400 00000KT P6SM SCT250
     FM030800 00000KT P6SM BKN030
     FM031200 00000KT P6SM BKN020
     FM031800 28004KT P6SM BKN035
     FM032000 26005KT P6SM SCT045
     FM032200 25005KT P6SM SKC=

USA.gov is the U.S. government's official web portal to all federal, state and local government web resources and services.